Terminal Aerodrome Forecast
Issued by NWS Grand Rapids, MI

Home | Current Version | Previous Version | Text Only | Print | Product List | Glossary On
Versions: 1 2 3 4 5 6 7 8 9 10 11 12 13 14 15 16 17
628
FTUS43 KGRR 262340
TAFGRR
TAF
KGRR 262340Z 2700/2724 24011KT P6SM VCSH BKN060
     FM270300 24008KT P6SM VCSH BKN050
     FM271400 25016G26KT P6SM VCSH OVC035=

USA.gov is the U.S. government's official web portal to all federal, state and local government web resources and services.